createdAt,value
2023-02-11T00:00:12.755Z,20.31
2023-02-11T00:03:15.809Z,20.31
2023-02-11T00:06:18.917Z,20.32
2023-02-11T00:09:22.058Z,20.30
2023-02-11T00:12:27.065Z,20.29
2023-02-11T00:15:30.180Z,20.30
2023-02-11T00:18:33.125Z,20.29
2023-02-11T00:21:36.452Z,20.29
2023-02-11T00:24:39.524Z,20.28
2023-02-11T00:27:43.988Z,20.26
2023-02-11T00:30:47.080Z,20.28
2023-02-11T00:33:50.702Z,20.26
2023-02-11T00:36:55.070Z,20.28
2023-02-11T00:39:58.049Z,20.26
2023-02-11T00:43:02.503Z,20.27
2023-02-11T00:46:05.933Z,20.27
2023-02-11T00:49:09.096Z,20.26
2023-02-11T00:52:12.121Z,20.26
2023-02-11T00:55:15.146Z,20.26
2023-02-11T00:58:19.561Z,20.23
2023-02-11T01:01:22.782Z,20.26
2023-02-11T01:04:25.871Z,20.26
2023-02-11T01:07:29.713Z,20.25
2023-02-11T01:10:33.062Z,20.26
2023-02-11T01:13:38.307Z,20.26
2023-02-11T01:16:41.561Z,20.18
2023-02-11T01:19:44.653Z,20.25
2023-02-11T01:22:47.712Z,20.20
2023-02-11T01:25:51.161Z,20.22
2023-02-11T01:28:55.661Z,20.13
2023-02-11T01:31:58.870Z,20.21
2023-02-11T01:35:02.136Z,20.21
2023-02-11T01:38:05.128Z,20.19
2023-02-11T01:41:10.730Z,20.22
2023-02-11T01:44:26.869Z,20.22
2023-02-11T01:47:29.861Z,20.21
2023-02-11T01:50:33.316Z,20.19
2023-02-11T01:53:55.573Z,20.22
2023-02-11T01:57:18.977Z,20.20
2023-02-11T02:00:27.142Z,20.21
2023-02-11T02:03:32.481Z,20.21
2023-02-11T02:06:38.995Z,20.21
2023-02-11T02:09:47.518Z,20.22
2023-02-11T02:12:50.652Z,20.22
2023-02-11T02:15:57.393Z,20.20
2023-02-11T02:19:20.788Z,20.20
2023-02-11T02:23:01.965Z,20.11
2023-02-11T02:26:19.971Z,20.19
2023-02-11T02:29:56.073Z,20.18
2023-02-11T02:33:24.171Z,20.20
2023-02-11T02:36:36.649Z,20.18
2023-02-11T02:39:40.602Z,20.17
2023-02-11T02:42:45.682Z,20.19
2023-02-11T02:45:49.009Z,20.18
2023-02-11T02:48:55.156Z,20.16
2023-02-11T02:52:22.741Z,20.17
2023-02-11T02:55:53.788Z,20.16
2023-02-11T02:59:21.922Z,20.17
2023-02-11T03:02:30.756Z,20.17
2023-02-11T03:05:46.595Z,20.15
2023-02-11T03:08:56.247Z,20.17
2023-02-11T03:12:00.962Z,20.16
2023-02-11T03:15:06.891Z,20.16
2023-02-11T03:18:13.198Z,20.16
2023-02-11T03:21:19.494Z,20.15
2023-02-11T03:24:29.416Z,20.14
2023-02-11T03:27:40.034Z,20.15
2023-02-11T03:30:48.317Z,20.11
2023-02-11T03:34:00.632Z,20.15
2023-02-11T03:37:11.049Z,20.15
2023-02-11T03:40:18.674Z,20.10
2023-02-11T03:43:25.272Z,20.15
2023-02-11T03:46:33.532Z,20.14
2023-02-11T03:49:39.205Z,20.11
2023-02-11T03:52:44.095Z,20.14
2023-02-11T03:55:50.532Z,20.13
2023-02-11T03:58:53.916Z,20.12
2023-02-11T04:01:57.779Z,20.14
2023-02-11T04:05:01.112Z,20.12
2023-02-11T04:08:06.261Z,20.13
2023-02-11T04:11:09.469Z,20.13
2023-02-11T04:14:12.503Z,20.13
2023-02-11T04:17:15.573Z,20.13
2023-02-11T04:20:18.962Z,20.13
2023-02-11T04:23:23.313Z,20.13
2023-02-11T04:26:26.369Z,19.99
2023-02-11T04:29:29.607Z,20.11
2023-02-11T04:32:32.692Z,20.13
2023-02-11T04:35:35.697Z,20.13
2023-02-11T04:38:40.219Z,20.11
2023-02-11T04:41:43.491Z,20.11
2023-02-11T04:44:46.597Z,20.13
2023-02-11T04:47:49.598Z,20.03
2023-02-11T04:50:52.897Z,20.08
2023-02-11T04:53:57.326Z,20.12
2023-02-11T04:57:00.330Z,20.14
2023-02-11T05:00:03.355Z,20.13
2023-02-11T05:03:06.336Z,20.13
2023-02-11T05:06:10.973Z,20.02
2023-02-11T05:09:16.804Z,20.03
2023-02-11T05:12:19.947Z,20.12
2023-02-11T05:15:22.892Z,19.98
2023-02-11T05:18:25.895Z,20.12
2023-02-11T05:21:28.974Z,20.11
2023-02-11T05:24:33.901Z,20.11
2023-02-11T05:27:37.168Z,20.12
2023-02-11T05:30:40.238Z,20.12
2023-02-11T05:33:43.333Z,20.12
2023-02-11T05:36:46.358Z,20.09
2023-02-11T05:39:51.144Z,20.09
2023-02-11T05:42:54.345Z,20.08
2023-02-11T05:45:57.377Z,20.09
2023-02-11T05:49:00.461Z,20.07
2023-02-11T05:52:03.519Z,20.10
2023-02-11T05:55:08.414Z,20.09
2023-02-11T05:58:11.687Z,19.99
2023-02-11T06:01:14.663Z,20.08
2023-02-11T06:04:17.724Z,20.07
2023-02-11T06:07:20.818Z,20.08
2023-02-11T06:10:25.239Z,20.07
2023-02-11T06:13:28.311Z,20.08
2023-02-11T06:16:31.573Z,20.00
2023-02-11T06:19:34.695Z,20.06
2023-02-11T06:22:37.729Z,20.08
2023-02-11T06:25:42.131Z,20.09
2023-02-11T06:28:45.274Z,20.09
2023-02-11T06:31:48.436Z,20.12
2023-02-11T06:34:51.524Z,20.39
2023-02-11T06:37:54.693Z,20.66
2023-02-11T06:40:59.155Z,20.90
2023-02-11T06:44:02.190Z,20.99
2023-02-11T06:47:05.700Z,21.00
2023-02-11T06:50:10.155Z,20.88
2023-02-11T06:53:13.250Z,20.82
2023-02-11T06:56:20.064Z,20.91
2023-02-11T06:59:23.272Z,21.14
2023-02-11T07:02:26.415Z,21.23
2023-02-11T07:05:29.422Z,21.05
2023-02-11T07:08:32.492Z,21.40
2023-02-11T07:11:36.957Z,21.48
2023-02-11T07:14:40.527Z,21.50
2023-02-11T07:17:43.562Z,21.40
2023-02-11T07:20:46.914Z,21.29
2023-02-11T07:23:50.305Z,21.24
2023-02-11T07:26:54.777Z,21.23
2023-02-11T07:29:58.105Z,21.24
2023-02-11T07:33:01.284Z,21.21
2023-02-11T07:36:05.330Z,21.21
2023-02-11T07:39:08.351Z,21.26
2023-02-11T07:42:12.698Z,21.25
2023-02-11T07:45:16.443Z,21.31
2023-02-11T07:48:19.426Z,21.35
2023-02-11T07:51:24.294Z,21.38
2023-02-11T07:54:27.353Z,21.40
2023-02-11T07:57:31.773Z,21.39
2023-02-11T08:00:34.838Z,21.34
2023-02-11T08:03:38.552Z,21.35
2023-02-11T08:06:43.730Z,21.36
2023-02-11T08:09:46.938Z,21.48
2023-02-11T08:12:51.391Z,21.55
2023-02-11T08:15:54.387Z,21.59
2023-02-11T08:18:59.565Z,21.59
2023-02-11T08:22:02.586Z,21.61
2023-02-11T08:25:06.229Z,21.58
2023-02-11T08:28:10.649Z,21.57
2023-02-11T08:31:15.632Z,21.48
2023-02-11T08:34:19.733Z,21.51
2023-02-11T08:37:22.870Z,21.50
2023-02-11T08:40:26.469Z,21.35
2023-02-11T08:43:31.072Z,21.40
2023-02-11T08:46:34.135Z,21.46
2023-02-11T08:49:37.625Z,21.54
2023-02-11T08:52:40.742Z,21.49
2023-02-11T08:55:50.428Z,21.42
2023-02-11T08:58:55.756Z,21.41
2023-02-11T09:01:58.824Z,21.37
2023-02-11T09:05:01.848Z,21.35
2023-02-11T09:08:04.879Z,21.38
2023-02-11T09:11:08.278Z,21.29
2023-02-11T09:14:18.227Z,21.27
2023-02-11T09:17:21.321Z,21.13
2023-02-11T09:20:24.771Z,21.10
2023-02-11T09:23:27.769Z,21.08
2023-02-11T09:26:33.365Z,21.15
2023-02-11T09:29:38.415Z,21.19
2023-02-11T09:32:41.485Z,21.03
2023-02-11T09:35:44.577Z,21.23
2023-02-11T09:38:48.279Z,21.12
2023-02-11T09:42:11.741Z,21.28
2023-02-11T09:45:20.584Z,21.22
2023-02-11T09:48:24.612Z,21.32
2023-02-11T09:51:37.017Z,21.33
2023-02-11T09:54:51.688Z,21.34
2023-02-11T09:57:55.055Z,21.44
2023-02-11T10:01:08.336Z,21.46
2023-02-11T10:04:22.160Z,21.40
2023-02-11T10:07:30.749Z,21.46
2023-02-11T10:10:46.650Z,21.40
2023-02-11T10:14:02.611Z,21.45
2023-02-11T10:17:20.252Z,21.46
2023-02-11T10:20:31.326Z,21.44
2023-02-11T10:23:38.096Z,21.46
2023-02-11T10:26:42.682Z,21.49
2023-02-11T10:29:50.967Z,21.58
2023-02-11T10:33:01.178Z,21.62
2023-02-11T10:36:05.561Z,21.64
2023-02-11T10:39:14.086Z,21.72
2023-02-11T10:42:17.298Z,21.76
2023-02-11T10:45:28.370Z,21.77
2023-02-11T10:48:42.815Z,21.79
2023-02-11T10:51:45.911Z,21.72
2023-02-11T10:55:01.064Z,21.64
2023-02-11T10:58:04.668Z,21.67
2023-02-11T11:01:23.402Z,21.65
2023-02-11T11:04:41.657Z,21.69
2023-02-11T11:07:54.752Z,21.71
2023-02-11T11:11:04.948Z,21.76
2023-02-11T11:14:20.717Z,21.81
2023-02-11T11:17:24.010Z,21.77
2023-02-11T11:20:32.484Z,21.77
2023-02-11T11:23:37.824Z,21.75
2023-02-11T11:26:43.802Z,21.73
2023-02-11T11:29:50.187Z,21.69
2023-02-11T11:32:53.688Z,21.66
2023-02-11T11:36:05.228Z,21.65
2023-02-11T11:39:21.614Z,21.60
2023-02-11T11:42:28.490Z,21.61
2023-02-11T11:45:31.830Z,21.46
2023-02-11T11:48:39.722Z,21.54
2023-02-11T11:51:50.651Z,21.51
2023-02-11T11:55:00.228Z,21.48
2023-02-11T11:58:03.471Z,21.46
2023-02-11T12:01:22.076Z,21.50
2023-02-11T12:04:38.298Z,21.43
2023-02-11T12:07:55.415Z,21.45
2023-02-11T12:11:08.686Z,21.43
2023-02-11T12:14:23.002Z,21.45
2023-02-11T12:17:41.364Z,21.42
2023-02-11T12:21:01.030Z,21.42
2023-02-11T12:24:27.607Z,21.41
2023-02-11T12:27:47.203Z,21.40
2023-02-11T12:31:13.401Z,21.35
2023-02-11T12:34:43.489Z,21.48
2023-02-11T12:38:11.054Z,21.43
2023-02-11T12:41:43.670Z,21.42
2023-02-11T12:45:00.026Z,21.44
2023-02-11T12:48:26.607Z,21.59
2023-02-11T12:51:42.588Z,21.62
2023-02-11T12:54:50.443Z,21.65
2023-02-11T12:57:57.891Z,21.65
2023-02-11T13:01:06.926Z,21.65
2023-02-11T13:04:18.264Z,21.63
2023-02-11T13:07:26.040Z,21.61
2023-02-11T13:10:35.367Z,21.43
2023-02-11T13:13:49.104Z,21.37
2023-02-11T13:16:52.627Z,21.48
2023-02-11T13:20:02.238Z,21.47
2023-02-11T13:23:14.817Z,21.46
2023-02-11T13:26:27.063Z,21.45
2023-02-11T13:29:49.220Z,21.42
2023-02-11T13:33:21.124Z,21.43
2023-02-11T13:36:26.826Z,21.39
2023-02-11T13:39:30.018Z,21.41
2023-02-11T13:42:35.571Z,21.45
2023-02-11T13:45:44.579Z,21.41
2023-02-11T13:48:50.650Z,21.29
2023-02-11T13:51:56.108Z,21.29
2023-02-11T13:55:04.714Z,21.25
2023-02-11T13:58:20.075Z,21.22
2023-02-11T14:01:43.432Z,21.19
2023-02-11T14:05:37.540Z,21.25
2023-02-11T14:09:00.919Z,21.37
2023-02-11T14:12:26.353Z,21.37
2023-02-11T14:15:40.800Z,21.37
2023-02-11T14:19:03.299Z,21.41
2023-02-11T14:22:08.008Z,21.41
2023-02-11T14:25:22.854Z,21.42
2023-02-11T14:28:32.978Z,21.41
2023-02-11T14:31:43.347Z,21.30
2023-02-11T14:34:54.625Z,21.39
2023-02-11T14:38:05.934Z,21.32
2023-02-11T14:41:17.418Z,21.24
2023-02-11T14:44:23.270Z,21.37
2023-02-11T14:47:35.610Z,21.42
2023-02-11T14:50:44.658Z,21.42
2023-02-11T14:53:51.625Z,21.42
2023-02-11T14:57:09.200Z,21.35
2023-02-11T15:00:18.837Z,21.33
2023-02-11T15:03:43.269Z,21.34
2023-02-11T15:06:50.598Z,21.36
2023-02-11T15:09:55.432Z,21.43
2023-02-11T15:13:00.687Z,21.32
2023-02-11T15:16:08.600Z,21.28
2023-02-11T15:19:22.642Z,21.24
2023-02-11T15:22:29.496Z,21.22
2023-02-11T15:25:34.232Z,21.19
2023-02-11T15:28:37.488Z,21.16
2023-02-11T15:31:40.575Z,21.16
2023-02-11T15:34:44.084Z,21.21
2023-02-11T15:37:50.637Z,21.22
2023-02-11T15:40:56.670Z,21.22
2023-02-11T15:43:59.753Z,21.31
2023-02-11T15:47:02.986Z,21.30
2023-02-11T15:50:07.330Z,21.26
2023-02-11T15:53:30.728Z,21.23
2023-02-11T15:56:43.203Z,21.25
2023-02-11T15:59:50.685Z,21.28
2023-02-11T16:02:54.276Z,21.26
2023-02-11T16:05:57.345Z,21.28
2023-02-11T16:09:04.735Z,21.26
2023-02-11T16:12:27.110Z,21.31
2023-02-11T16:15:45.051Z,21.25
2023-02-11T16:19:03.402Z,21.24
2023-02-11T16:22:11.370Z,21.29
2023-02-11T16:25:20.833Z,21.25
2023-02-11T16:28:23.890Z,21.24
2023-02-11T16:31:34.263Z,21.23
2023-02-11T16:34:38.145Z,21.23
2023-02-11T16:37:41.147Z,21.22
2023-02-11T16:40:49.281Z,21.20
2023-02-11T16:43:52.420Z,21.18
2023-02-11T16:46:56.189Z,21.16
2023-02-11T16:50:00.564Z,21.17
2023-02-11T16:53:06.465Z,21.14
2023-02-11T16:56:17.116Z,21.13
2023-02-11T16:59:20.261Z,21.12
2023-02-11T17:02:27.456Z,21.11
2023-02-11T17:05:30.529Z,21.09
2023-02-11T17:08:33.844Z,21.08
2023-02-11T17:11:38.276Z,21.08
2023-02-11T17:14:41.373Z,21.10
2023-02-11T17:17:45.920Z,21.08
2023-02-11T17:20:49.082Z,21.09
2023-02-11T17:23:52.068Z,21.05
2023-02-11T17:26:56.969Z,21.13
2023-02-11T17:30:00.018Z,21.08
2023-02-11T17:33:03.112Z,21.07
2023-02-11T17:36:08.015Z,21.07
2023-02-11T17:39:11.352Z,21.07
2023-02-11T17:42:15.823Z,21.06
2023-02-11T17:45:22.090Z,21.05
2023-02-11T17:48:25.464Z,21.10
2023-02-11T17:51:31.538Z,21.13
2023-02-11T17:54:34.662Z,21.15
2023-02-11T17:57:39.129Z,21.16
2023-02-11T18:00:43.452Z,21.11
2023-02-11T18:03:47.088Z,21.07
2023-02-11T18:06:50.429Z,21.06
2023-02-11T18:09:54.128Z,21.03
2023-02-11T18:12:58.642Z,21.02
2023-02-11T18:16:04.630Z,21.05
2023-02-11T18:19:09.375Z,21.04
2023-02-11T18:22:12.623Z,21.06
2023-02-11T18:25:16.576Z,21.07
2023-02-11T18:28:21.056Z,21.09
2023-02-11T18:31:24.329Z,21.12
2023-02-11T18:34:27.567Z,21.03
2023-02-11T18:37:30.690Z,20.73
2023-02-11T18:40:33.716Z,20.84
2023-02-11T18:46:41.043Z,21.00
2023-02-11T18:49:44.115Z,20.99
2023-02-11T18:52:47.394Z,20.96
2023-02-11T18:55:51.116Z,20.94
2023-02-11T19:01:59.487Z,20.92
2023-02-11T19:05:02.601Z,20.94
2023-02-11T19:08:06.006Z,20.93
2023-02-11T19:11:09.247Z,20.94
2023-02-11T19:14:14.004Z,20.96
2023-02-11T19:17:17.040Z,20.99
2023-02-11T19:20:20.473Z,20.98
2023-02-11T19:23:23.506Z,21.15
2023-02-11T19:26:26.667Z,21.12
2023-02-11T19:29:32.271Z,21.20
2023-02-11T19:32:35.339Z,21.29
2023-02-11T19:35:38.356Z,21.29
2023-02-11T19:38:41.487Z,21.25
2023-02-11T19:41:44.488Z,21.21
2023-02-11T19:44:49.095Z,21.22
2023-02-11T19:47:56.580Z,21.21
2023-02-11T19:50:59.695Z,21.18
2023-02-11T19:54:02.824Z,21.19
2023-02-11T19:57:05.898Z,21.20
2023-02-11T20:00:11.909Z,21.16
2023-02-11T20:03:15.033Z,21.16
2023-02-11T20:06:21.706Z,21.21
2023-02-11T20:09:26.581Z,21.31
2023-02-11T20:12:29.608Z,21.35
2023-02-11T20:15:34.092Z,21.37
2023-02-11T20:18:38.297Z,21.38
2023-02-11T20:21:41.400Z,21.25
2023-02-11T20:24:44.436Z,21.14
2023-02-11T20:27:47.622Z,21.11
2023-02-11T20:30:58.241Z,21.09
2023-02-11T20:34:02.250Z,21.05
2023-02-11T20:37:06.098Z,21.07
2023-02-11T20:40:09.556Z,21.06
2023-02-11T20:43:12.552Z,21.05
2023-02-11T20:46:19.471Z,21.03
2023-02-11T20:49:24.503Z,21.05
2023-02-11T20:52:28.792Z,21.02
2023-02-11T20:55:31.859Z,21.03
2023-02-11T20:58:35.686Z,21.02
2023-02-11T21:01:42.930Z,21.02
2023-02-11T21:04:46.022Z,21.02
2023-02-11T21:07:49.075Z,21.00
2023-02-11T21:10:52.115Z,21.01
2023-02-11T21:13:55.221Z,21.00
2023-02-11T21:16:59.893Z,20.97
2023-02-11T21:20:03.111Z,20.93
2023-02-11T21:23:06.185Z,20.91
2023-02-11T21:26:09.784Z,20.92
2023-02-11T21:29:13.048Z,20.93
2023-02-11T21:32:17.775Z,20.94
2023-02-11T21:38:23.559Z,20.93
2023-02-11T21:41:27.450Z,20.91
2023-02-11T21:44:32.090Z,20.91
2023-02-11T21:47:37.552Z,20.90
2023-02-11T21:50:41.289Z,20.90
2023-02-11T21:53:44.477Z,20.92
2023-02-11T21:56:47.474Z,20.92
2023-02-11T21:59:50.476Z,20.96
2023-02-11T22:02:54.898Z,20.94
2023-02-11T22:05:57.990Z,20.92
2023-02-11T22:09:04.343Z,20.91
2023-02-11T22:12:08.848Z,20.94
2023-02-11T22:15:11.980Z,20.94
2023-02-11T22:18:16.427Z,20.98
2023-02-11T22:21:21.524Z,20.98
2023-02-11T22:24:24.577Z,20.96
2023-02-11T22:27:27.656Z,20.96
2023-02-11T22:30:30.665Z,20.93
2023-02-11T22:33:35.564Z,20.91
2023-02-11T22:36:40.573Z,20.90
2023-02-11T22:39:43.803Z,20.90
2023-02-11T22:42:46.885Z,20.90
2023-02-11T22:45:50.278Z,20.90
2023-02-11T22:48:55.115Z,20.90
2023-02-11T22:51:58.100Z,20.89
2023-02-11T22:55:01.313Z,20.92
2023-02-11T22:58:04.529Z,20.90
2023-02-11T23:01:07.803Z,20.92
2023-02-11T23:04:15.295Z,20.90
2023-02-11T23:07:18.288Z,20.91
2023-02-11T23:10:21.469Z,20.89
2023-02-11T23:13:24.444Z,20.90
2023-02-11T23:16:29.361Z,20.89
2023-02-11T23:19:33.877Z,20.91
2023-02-11T23:22:36.866Z,20.87
2023-02-11T23:25:44.182Z,20.87
2023-02-11T23:28:47.710Z,20.87
2023-02-11T23:31:51.218Z,20.88
2023-02-11T23:34:55.716Z,20.88
2023-02-11T23:37:58.708Z,20.89
2023-02-11T23:41:01.738Z,20.88
2023-02-11T23:44:04.837Z,20.89
2023-02-11T23:47:07.835Z,20.89
2023-02-11T23:50:13.311Z,20.85
2023-02-11T23:53:16.528Z,20.81
2023-02-11T23:56:24.077Z,20.85
2023-02-11T23:59:27.194Z,20.86
